Time;durP1;ratioP1;P1;durP2;ratioP2;P2;SDS_P1;SDS_P2;PMS_P1;PMS_P2;Temp;Humidity;BMP_temperature;BMP_pressure;BME280_temperature;BME280_humidity;BME280_pressure;Samples;Min_cycle;Max_cycle;Signal;HPM_P1;HPM_P2
2023/03/17 00:04:51;;;;;;;4.60;3.00;;;;;;;2.39;60.47;96275.72;10372484;28;20368;-56
2023/03/17 00:09:52;;;;;;;3.90;2.97;;;;;;;2.43;59.84;96264.19;10373000;28;20201;-60
2023/03/17 00:14:52;;;;;;;3.83;2.80;;;;;;;2.39;60.31;96259.34;10372710;28;20262;-58
2023/03/17 00:19:53;;;;;;;6.33;3.10;;;;;;;2.37;59.97;96254.31;10372038;28;20736;-58
2023/03/17 00:24:53;;;;;;;6.73;3.03;;;;;;;2.45;59.15;96239.06;10371490;28;20710;-60
2023/03/17 00:29:53;;;;;;;7.07;3.33;;;;;;;2.42;58.88;96226.38;10372131;28;20778;-60
2023/03/17 00:34:55;;;;;;;8.00;3.40;;;;;;;2.35;59.31;96237.28;10372005;28;20735;-60
2023/03/17 00:39:55;;;;;;;8.63;2.87;;;;;;;2.43;58.13;96209.88;10371639;28;20193;-60
2023/03/17 00:44:57;;;;;;;4.07;2.30;;;;;;;2.44;58.70;96206.38;10386304;28;20781;-60
2023/03/17 00:49:58;;;;;;;4.70;2.50;;;;;;;2.42;58.27;96218.59;10371110;28;20200;-60
2023/03/17 00:54:58;;;;;;;5.47;2.63;;;;;;;2.40;58.44;96191.22;10386151;28;20213;-58
2023/03/17 00:59:59;;;;;;;5.73;3.10;;;;;;;2.35;58.03;96190.75;10386022;28;20193;-59
2023/03/17 01:05:00;;;;;;;4.40;2.70;;;;;;;2.35;57.88;96175.25;10385763;28;20243;-57
2023/03/17 01:10:01;;;;;;;5.20;3.00;;;;;;;2.29;58.29;96185.09;10370857;28;20189;-60
2023/03/17 01:15:01;;;;;;;10.53;3.27;;;;;;;2.28;58.27;96180.06;10370453;28;20198;-56
2023/03/17 01:20:04;;;;;;;3.03;2.07;;;;;;;2.20;58.91;96185.81;10385077;28;20208;-60
2023/03/17 01:25:05;;;;;;;5.33;2.53;;;;;;;2.17;59.27;96178.31;10370036;28;20225;-57
2023/03/17 01:30:08;;;;;;;5.73;2.83;;;;;;;2.20;58.97;96170.31;10369917;28;20185;-59
2023/03/17 01:35:09;;;;;;;5.40;2.60;;;;;;;2.20;58.82;96157.41;10369710;28;20860;-56
2023/03/17 01:40:13;;;;;;;6.47;2.83;;;;;;;2.27;57.99;96129.34;10368732;28;20253;-59
2023/03/17 01:45:51;;;;;;;7.13;3.17;;;;;;;2.31;57.13;96103.13;10369226;28;20220;-59
2023/03/17 01:50:52;;;;;;;3.40;2.13;;;;;;;2.28;57.29;96094.78;10368931;28;20672;-59
2023/03/17 01:55:55;;;;;;;5.00;2.83;;;;;;;2.27;56.89;96086.22;10367425;28;20201;-60
2023/03/17 02:00:55;;;;;;;4.17;2.07;;;;;;;2.36;56.21;96076.91;10368313;28;20201;-60
2023/03/17 02:05:57;;;;;;;4.07;3.00;;;;;;;2.23;57.48;96096.91;10367854;28;20248;-60
2023/03/17 02:10:58;;;;;;;4.63;1.70;;;;;;;2.22;57.11;96098.69;10368241;28;20281;-59
2023/03/17 02:15:58;;;;;;;5.40;2.03;;;;;;;2.22;56.96;96065.09;10368254;28;20243;-54
2023/03/17 02:21:39;;;;;;;5.43;2.97;;;;;;;2.23;57.06;96078.81;10367001;28;20188;-58
2023/03/17 02:26:42;;;;;;;4.60;2.20;;;;;;;2.21;57.24;96080.72;10296625;28;20330;-59
2023/03/17 02:31:44;;;;;;;4.93;2.47;;;;;;;2.23;56.59;96069.28;10367115;28;20699;-60
2023/03/17 02:36:45;;;;;;;5.03;2.83;;;;;;;2.26;56.41;96063.06;10367626;28;20186;-57
2023/03/17 02:41:45;;;;;;;6.47;2.87;;;;;;;2.21;56.72;96068.59;10367024;28;20212;-59
2023/03/17 02:46:46;;;;;;;4.70;2.37;;;;;;;2.30;56.44;96059.31;10365162;28;20209;-60
2023/03/17 02:51:46;;;;;;;6.20;2.63;;;;;;;2.24;56.66;96062.38;10366797;28;20244;-59
2023/03/17 02:56:47;;;;;;;3.07;2.20;;;;;;;2.25;56.82;96069.19;10366887;28;20217;-60
2023/03/17 03:01:49;;;;;;;4.57;2.27;;;;;;;2.30;55.76;96067.06;10365930;28;20328;-59
2023/03/17 03:06:49;;;;;;;4.33;2.17;;;;;;;2.43;55.53;96036.69;10366033;28;20599;-55
2023/03/17 03:11:51;;;;;;;4.67;2.30;;;;;;;2.48;54.58;96021.66;10365821;28;20213;-60
2023/03/17 03:16:51;;;;;;;4.17;2.90;;;;;;;2.37;55.13;96019.09;10366198;28;20559;-60
2023/03/17 03:21:51;;;;;;;2.43;1.87;;;;;;;2.40;54.93;96026.59;10365531;28;20323;-58
2023/03/17 03:26:52;;;;;;;6.00;2.73;;;;;;;2.37;55.72;96044.94;10366371;28;20307;-58
2023/03/17 03:31:52;;;;;;;5.00;2.80;;;;;;;2.30;55.59;96067.06;10366128;28;20263;-58
2023/03/17 03:36:52;;;;;;;3.60;1.87;;;;;;;2.37;55.04;96024.25;10366238;28;20184;-53
2023/03/17 03:41:56;;;;;;;3.77;1.77;;;;;;;2.39;55.51;96055.16;10365513;28;20217;-59
2023/03/17 03:46:56;;;;;;;4.00;2.80;;;;;;;2.38;55.08;96027.69;10365692;28;20317;-59
2023/03/17 03:51:56;;;;;;;8.00;3.40;;;;;;;2.32;55.62;96036.75;10365620;28;20292;-59
2023/03/17 03:56:57;;;;;;;7.07;2.80;;;;;;;2.31;55.49;96035.94;10369343;28;20248;-60
2023/03/17 04:01:57;;;;;;;6.57;2.87;;;;;;;2.35;55.05;96044.25;10375438;28;20245;-58
2023/03/17 04:06:57;;;;;;;5.30;2.70;;;;;;;2.26;56.01;96037.22;10413689;28;20315;-60
2023/03/17 04:11:58;;;;;;;5.27;3.43;;;;;;;2.18;56.25;96034.44;10413623;28;20262;-55
2023/03/17 04:16:58;;;;;;;7.80;3.67;;;;;;;2.25;56.11;96018.34;10427030;23;20257;-60
2023/03/17 04:21:58;;;;;;;7.10;3.00;;;;;;;2.29;55.56;96011.13;10416539;28;20185;-58
2023/03/17 04:26:59;;;;;;;3.53;2.63;;;;;;;2.18;56.37;96039.63;10416744;28;20229;-60
2023/03/17 04:32:00;;;;;;;9.20;3.23;;;;;;;2.20;56.18;96028.19;10416753;28;20189;-60
2023/03/17 04:37:01;;;;;;;4.87;3.00;;;;;;;2.08;56.76;96024.84;10416520;28;20205;-61
2023/03/17 04:42:02;;;;;;;5.50;3.27;;;;;;;2.21;56.13;96013.53;10415906;28;20228;-62
2023/03/17 04:47:02;;;;;;;2.97;2.13;;;;;;;2.12;56.00;96025.41;10415787;28;20286;-62
2023/03/17 04:52:03;;;;;;;4.50;3.17;;;;;;;2.12;56.31;96010.72;10416064;28;20207;-60
2023/03/17 04:57:03;;;;;;;4.03;2.63;;;;;;;2.08;56.32;96014.50;10415088;28;20216;-61
2023/03/17 05:02:03;;;;;;;7.90;3.40;;;;;;;1.99;56.94;96035.06;10415556;28;20197;-61
2023/03/17 05:07:04;;;;;;;7.77;3.17;;;;;;;1.92;57.52;96057.97;10413946;28;20247;-60
2023/03/17 05:12:05;;;;;;;4.27;2.57;;;;;;;2.01;56.36;96013.34;10415134;28;20250;-62
2023/03/17 05:17:06;;;;;;;5.93;3.20;;;;;;;2.01;56.09;95997.03;10414382;28;20649;-62
2023/03/17 05:22:06;;;;;;;5.90;3.13;;;;;;;1.96;57.10;96010.28;10414129;28;20199;-62
2023/03/17 05:27:06;;;;;;;5.40;3.40;;;;;;;1.92;56.87;96014.88;10414189;28;20228;-60
2023/03/17 05:32:07;;;;;;;6.93;3.70;;;;;;;1.96;56.74;95989.59;10413885;28;20202;-59
2023/03/17 05:37:09;;;;;;;4.90;2.43;;;;;;;2.01;56.35;96002.19;10413872;28;20757;-62
2023/03/17 05:42:09;;;;;;;5.23;2.67;;;;;;;2.12;55.83;95971.97;10396234;28;20188;-59
2023/03/17 05:47:10;;;;;;;3.83;2.53;;;;;;;2.13;55.57;95990.88;10412991;28;20710;-60
2023/03/17 05:52:10;;;;;;;4.33;3.00;;;;;;;2.07;56.33;96001.72;10412981;28;20203;-63
2023/03/17 05:57:11;;;;;;;6.23;3.20;;;;;;;2.00;56.47;96010.88;10412764;28;20578;-60
2023/03/17 06:02:11;;;;;;;3.67;2.60;;;;;;;1.96;56.59;96023.19;10413106;28;20652;-62
2023/03/17 06:07:12;;;;;;;6.13;3.17;;;;;;;2.01;56.55;96021.09;10412434;28;20758;-63
2023/03/17 06:12:12;;;;;;;4.83;3.17;;;;;;;2.07;56.48;96025.78;10412680;28;20200;-61
2023/03/17 06:17:13;;;;;;;5.37;3.17;;;;;;;2.04;57.13;96031.19;10411972;28;20240;-60
2023/03/17 06:22:13;;;;;;;5.40;3.43;;;;;;;2.06;56.65;96029.28;10410953;28;20189;-60
2023/03/17 06:27:14;;;;;;;3.90;2.50;;;;;;;2.24;56.33;96013.28;10411844;28;20224;-60
2023/03/17 06:32:14;;;;;;;3.83;2.80;;;;;;;2.34;55.97;96026.28;10435251;28;20198;-62
2023/03/17 06:37:15;;;;;;;6.57;2.87;;;;;;;2.58;55.17;96018.31;10452436;28;20208;-60
2023/03/17 06:42:15;;;;;;;6.50;3.60;;;;;;;2.80;55.00;96012.22;10452905;28;20211;-59
2023/03/17 06:47:16;;;;;;;7.20;4.23;;;;;;;2.97;53.92;95992.72;10452082;28;20285;-61
2023/03/17 06:52:16;;;;;;;6.50;2.83;;;;;;;3.20;53.06;96014.09;10423260;28;20196;-59
2023/03/17 06:57:16;;;;;;;8.50;3.00;;;;;;;3.29;53.01;96010.75;10387061;28;20216;-60
2023/03/17 07:02:17;;;;;;;4.97;2.80;;;;;;;3.42;52.73;96001.97;10387623;28;20189;-60
2023/03/17 07:07:19;;;;;;;3.13;2.30;;;;;;;3.56;52.72;96027.50;10371249;28;20251;-62
2023/03/17 07:12:20;;;;;;;5.40;3.07;;;;;;;3.94;52.17;95987.13;10369830;28;20189;-61
2023/03/17 07:17:20;;;;;;;5.13;2.87;;;;;;;4.35;49.69;95935.16;10369532;28;20237;-60
2023/03/17 07:22:21;;;;;;;4.97;2.77;;;;;;;4.87;48.64;95943.44;10369499;28;20193;-63
2023/03/17 07:27:24;;;;;;;5.87;2.40;;;;;;;5.12;48.00;95923.03;10369404;28;20224;-61
2023/03/17 07:32:24;;;;;;;3.57;2.20;;;;;;;4.81;48.18;95915.47;10374217;28;20208;-58
2023/03/17 07:37:24;;;;;;;4.43;2.23;;;;;;;4.64;48.65;95915.22;10377198;28;20252;-61
2023/03/17 07:42:26;;;;;;;4.43;2.57;;;;;;;4.61;49.00;95905.13;10377463;28;20193;-60
2023/03/17 07:47:27;;;;;;;4.50;2.70;;;;;;;4.50;48.60;95894.88;10389451;28;20277;-60
2023/03/17 07:52:27;;;;;;;4.87;2.47;;;;;;;4.46;48.27;95885.78;10415210;28;20188;-61
2023/03/17 07:57:27;;;;;;;3.27;2.27;;;;;;;4.31;49.29;95907.91;10416437;28;20694;-61
2023/03/17 08:02:28;;;;;;;6.63;3.30;;;;;;;4.25;49.52;95917.84;10415735;28;20184;-60
2023/03/17 08:07:30;;;;;;;2.43;1.77;;;;;;;5.04;48.63;95938.47;10416020;28;20347;-61
2023/03/17 08:12:30;;;;;;;8.00;3.27;;;;;;;5.18;48.37;95959.63;10415151;28;20298;-60
2023/03/17 08:17:31;;;;;;;5.67;2.90;;;;;;;5.29;47.88;95919.66;10415063;28;20259;-62
2023/03/17 08:22:31;;;;;;;4.23;2.53;;;;;;;5.58;46.77;95899.72;10414139;28;20211;-63
2023/03/17 08:27:32;;;;;;;6.23;3.13;;;;;;;5.97;47.39;95897.72;10414005;28;20256;-62
2023/03/17 08:32:32;;;;;;;4.57;2.30;;;;;;;6.24;45.17;95854.38;10415210;28;20207;-61
2023/03/17 08:37:32;;;;;;;3.83;2.10;;;;;;;6.51;45.06;95850.84;10414192;28;20217;-62
2023/03/17 08:42:33;;;;;;;8.83;3.30;;;;;;;6.87;44.74;95847.31;10413904;28;20200;-60
2023/03/17 08:47:33;;;;;;;4.80;2.37;;;;;;;7.01;43.97;95833.69;10399128;28;20222;-59
2023/03/17 08:52:34;;;;;;;2.33;1.63;;;;;;;6.63;44.42;95835.81;10391344;28;20190;-62
2023/03/17 08:57:35;;;;;;;6.20;2.43;;;;;;;6.79;44.23;95838.47;10391479;28;20228;-60
2023/03/17 09:02:36;;;;;;;5.63;2.90;;;;;;;6.75;43.94;95841.53;10391350;28;20189;-59
2023/03/17 09:07:37;;;;;;;4.43;2.10;;;;;;;7.39;44.43;95870.66;10374931;28;20272;-63
2023/03/17 09:12:37;;;;;;;4.27;2.43;;;;;;;7.83;42.66;95840.97;10372002;28;20609;-61
2023/03/17 09:17:38;;;;;;;2.73;2.03;;;;;;;7.93;43.12;95856.44;10372247;28;20312;-62
2023/03/17 09:22:38;;;;;;;5.63;2.50;;;;;;;7.98;41.40;95826.31;10371689;28;20286;-62
2023/03/17 09:27:40;;;;;;;4.87;2.60;;;;;;;7.80;42.39;95834.28;10386695;28;20307;-60
2023/03/17 09:32:41;;;;;;;9.60;2.30;;;;;;;8.04;41.77;95814.44;10403794;28;20192;-62
2023/03/17 09:37:41;;;;;;;6.67;2.57;;;;;;;8.08;41.85;95836.56;10406104;28;20220;-62
2023/03/17 09:42:59;;;;;;;3.50;2.63;;;;;;;8.21;42.56;95847.34;10408611;28;20232;-61
2023/03/17 09:48:18;;;;;;;4.77;2.60;;;;;;;8.67;41.98;95857.28;10383101;28;20251;-58
2023/03/17 09:53:34;;;;;;;4.50;2.63;;;;;;;9.14;40.73;95815.69;10401492;28;20283;-59
2023/03/17 09:58:36;;;;;;;4.30;2.50;;;;;;;9.26;39.26;95790.81;10403313;28;20204;-61
2023/03/17 10:03:36;;;;;;;2.87;2.13;;;;;;;9.02;39.70;95802.19;10387557;28;20208;-59
2023/03/17 10:08:43;;;;;;;2.80;2.33;;;;;;;9.70;40.09;95844.34;10405134;28;20209;-60
2023/03/17 10:13:53;;;;;;;5.47;2.13;;;;;;;9.48;38.98;95786.63;10389396;28;20272;-61
2023/03/17 10:18:57;;;;;;;6.10;2.60;;;;;;;9.49;38.99;95787.44;10338059;28;20240;-60
2023/03/17 10:23:58;;;;;;;3.17;2.07;;;;;;;9.81;38.21;95778.56;10324981;28;20257;-61
2023/03/17 10:29:03;;;;;;;3.53;2.47;;;;;;;10.31;38.06;95792.06;10324239;28;20260;-60
2023/03/17 10:34:15;;;;;;;2.83;2.10;;;;;;;10.18;37.56;95771.72;10377997;23;20282;-61
2023/03/17 10:39:18;;;;;;;3.67;1.87;;;;;;;10.60;36.02;95759.91;10406443;28;20211;-62
2023/03/17 10:44:33;;;;;;;2.30;2.00;;;;;;;10.76;36.50;95758.91;10387612;28;20218;-62
2023/03/17 10:49:36;;;;;;;6.00;2.60;;;;;;;11.04;36.51;95782.66;10364540;28;20185;-63
2023/03/17 10:54:38;;;;;;;5.95;2.50;;;;;;;11.53;35.55;95762.03;10365672;28;20351;-59
2023/03/17 10:59:43;;;;;;;3.97;2.60;;;;;;;11.45;33.67;95704.44;10365212;28;20198;-61
2023/03/17 11:04:43;;;;;;;5.50;2.75;;;;;;;11.46;33.24;95706.09;10362534;28;20229;-63
2023/03/17 11:09:49;;;;;;;6.85;2.60;;;;;;;11.15;35.24;95743.84;10353843;28;20210;-63
2023/03/17 11:14:54;;;;;;;4.65;2.97;;;;;;;11.39;37.89;95835.31;10324061;28;20209;-59
2023/03/17 11:20:03;;;;;;;5.60;2.63;;;;;;;11.30;37.68;95836.44;10324309;28;20280;-61
2023/03/17 11:25:09;;;;;;;5.43;2.83;;;;;;;10.92;38.93;95865.34;10323911;28;20320;-59
2023/03/17 11:30:18;;;;;;;4.30;2.92;;;;;;;10.63;38.63;95826.84;10325178;28;20198;-60
2023/03/17 11:35:43;;;;;;;5.22;2.50;;;;;;;11.35;37.42;95822.75;10333918;28;20966;-59
2023/03/17 11:40:57;;;;;;;4.25;2.70;;;;;;;11.00;37.05;95791.06;10364078;28;20652;-60
2023/03/17 11:46:31;;;;;;;5.28;2.80;;;;;;;11.13;37.01;95796.44;10363012;28;20239;-63
2023/03/17 11:51:58;;;;;;;4.53;2.72;;;;;;;10.63;37.42;95780.50;10364467;28;20189;-60
2023/03/17 11:57:00;;;;;;;5.13;2.97;;;;;;;10.73;37.62;95795.94;10364161;28;20262;-58
2023/03/17 12:02:19;;;;;;;4.72;2.53;;;;;;;10.82;38.16;95812.38;10364241;28;20197;-60
2023/03/17 12:07:52;;;;;;;3.45;2.67;;;;;;;11.14;37.48;95808.56;10361891;28;20225;-60
2023/03/17 12:12:55;;;;;;;5.40;2.92;;;;;;;11.70;37.95;95838.69;10362623;28;20683;-59
2023/03/17 12:17:59;;;;;;;3.40;2.75;;;;;;;11.42;37.57;95813.16;10365516;28;20196;-56
2023/03/17 12:23:37;;;;;;;5.43;2.80;;;;;;;10.87;39.04;95817.88;10370806;28;20659;-62
2023/03/17 12:28:43;;;;;;;6.65;2.63;;;;;;;10.97;38.07;95800.09;10371034;28;20263;-61
2023/03/17 12:33:58;;;;;;;4.50;2.42;;;;;;;10.69;38.34;95789.44;10366855;28;20225;-62
2023/03/17 12:39:11;;;;;;;5.30;3.42;;;;;;;10.86;38.70;95819.72;10368922;28;20197;-58
2023/03/17 12:44:15;;;;;;;4.47;2.60;;;;;;;10.14;39.72;95813.13;10368394;28;20711;-61
2023/03/17 12:49:32;;;;;;;6.50;2.60;;;;;;;10.21;38.38;95781.84;10368984;28;20197;-60
2023/03/17 12:54:35;;;;;;;7.47;3.13;;;;;;;10.25;39.46;95792.78;10368434;28;20207;-59
2023/03/17 12:59:36;;;;;;;7.47;3.33;;;;;;;10.42;40.49;95845.84;10368431;28;20221;-55
2023/03/17 13:04:36;;;;;;;7.45;4.18;;;;;;;10.58;39.97;95845.69;10367800;28;20754;-56
2023/03/17 13:09:52;;;;;;;5.33;3.57;;;;;;;10.37;39.22;95770.44;10368283;28;20201;-57
2023/03/17 13:14:59;;;;;;;5.78;3.60;;;;;;;10.45;38.34;95777.41;10367883;28;20302;-61
2023/03/17 13:20:06;;;;;;;6.80;3.17;;;;;;;10.24;39.74;95791.16;10368365;28;20640;-53
2023/03/17 13:25:54;;;;;;;6.70;2.67;;;;;;;10.34;38.80;95762.94;10368186;28;20660;-54
2023/03/17 13:31:07;;;;;;;5.85;2.47;;;;;;;10.64;38.69;95776.06;10348157;28;20202;-57
2023/03/17 13:36:21;;;;;;;9.77;3.40;;;;;;;10.79;39.66;95799.66;10326796;28;20268;-57
2023/03/17 13:42:01;;;;;;;6.60;3.45;;;;;;;10.50;40.24;95807.28;10326031;28;20593;-61
2023/03/17 13:47:16;;;;;;;9.77;3.38;;;;;;;10.68;39.73;95778.13;10364789;28;20600;-58
2023/03/17 13:52:40;;;;;;;8.88;4.15;;;;;;;10.56;41.00;95805.75;10367776;28;20279;-56
2023/03/17 13:57:40;;;;;;;7.38;4.05;;;;;;;10.65;41.61;95801.25;10365281;28;20563;-60
2023/03/17 14:02:41;;;;;;;7.50;4.25;;;;;;;10.60;41.71;95808.84;10366059;28;20220;-59
2023/03/17 14:07:58;;;;;;;5.13;3.45;;;;;;;10.52;41.68;95813.19;10364650;28;20216;-59
2023/03/17 14:13:11;;;;;;;7.35;3.42;;;;;;;10.40;40.70;95791.03;10365935;28;20217;-57
2023/03/17 14:18:17;;;;;;;10.53;4.53;;;;;;;10.61;42.71;95828.78;10363126;28;20239;-56
2023/03/17 14:23:17;;;;;;;8.93;4.32;;;;;;;10.59;42.31;95800.16;10366329;28;20742;-58
2023/03/17 14:28:22;;;;;;;6.20;3.80;;;;;;;10.82;42.85;95825.47;10365272;28;20236;-58
2023/03/17 14:33:32;;;;;;;10.30;4.53;;;;;;;10.84;42.56;95810.38;10364181;28;20249;-56
2023/03/17 14:38:35;;;;;;;7.05;4.53;;;;;;;10.84;42.74;95805.97;10365605;28;20204;-58
2023/03/17 14:43:35;;;;;;;7.70;4.60;;;;;;;11.03;43.59;95850.97;10357276;28;20213;-58
2023/03/17 14:48:37;;;;;;;9.27;5.03;;;;;;;11.53;43.61;95838.09;10342732;28;20198;-60
2023/03/17 14:53:39;;;;;;;8.25;4.18;;;;;;;12.43;41.44;95807.09;10363719;28;20233;-59
2023/03/17 14:58:45;;;;;;;6.85;4.97;;;;;;;12.66;40.78;95796.34;10364280;28;20743;-57
2023/03/17 15:03:57;;;;;;;4.63;3.13;;;;;;;11.94;42.05;95788.53;10364017;28;20221;-57
2023/03/17 15:09:16;;;;;;;8.55;5.35;;;;;;;12.42;41.74;95800.19;10364928;28;20276;-56
2023/03/17 15:14:33;;;;;;;8.38;5.15;;;;;;;11.41;42.28;95766.97;10325133;28;20228;-54
2023/03/17 15:19:48;;;;;;;11.93;5.70;;;;;;;11.47;42.61;95805.56;10333344;28;20284;-59
2023/03/17 15:25:16;;;;;;;9.38;5.57;;;;;;;11.20;43.71;95843.75;10364054;28;20252;-59
2023/03/17 15:30:17;;;;;;;7.63;4.70;;;;;;;10.12;45.65;95837.84;10364358;28;20231;-62
2023/03/17 15:35:17;;;;;;;8.20;5.33;;;;;;;9.82;46.61;95851.63;10364075;28;20644;-62
2023/03/17 15:40:18;;;;;;;12.50;6.27;;;;;;;9.95;46.19;95853.69;10364360;28;20197;-56
2023/03/17 15:45:18;;;;;;;7.97;5.50;;;;;;;9.62;46.63;95850.44;10363855;28;20438;-60
2023/03/17 15:50:22;;;;;;;10.53;5.50;;;;;;;9.56;46.79;95848.53;10398379;28;20621;-57
2023/03/17 15:55:28;;;;;;;11.17;6.50;;;;;;;9.52;47.98;95884.63;10367007;28;20206;-61
2023/03/17 16:00:28;;;;;;;8.83;6.20;;;;;;;9.56;48.06;95883.31;10370272;28;20248;-59
2023/03/17 16:05:30;;;;;;;11.43;6.40;;;;;;;9.73;48.20;95870.16;10369607;28;20225;-59
2023/03/17 16:10:31;;;;;;;9.43;6.70;;;;;;;9.63;48.94;95884.28;10363941;28;20255;-61
2023/03/17 16:15:36;;;;;;;12.03;6.30;;;;;;;9.42;48.81;95882.22;10372033;28;20236;-58
2023/03/17 16:20:45;;;;;;;15.07;7.30;;;;;;;9.33;49.96;95903.34;10363037;28;20768;-60
2023/03/17 16:25:46;;;;;;;10.30;6.40;;;;;;;9.43;48.61;95867.34;10352679;28;20739;-59
2023/03/17 16:30:48;;;;;;;11.83;7.10;;;;;;;9.55;48.36;95865.19;10349186;28;20190;-61
2023/03/17 16:35:49;;;;;;;11.07;5.80;;;;;;;9.53;48.70;95870.59;10344793;28;20228;-60
2023/03/17 16:40:54;;;;;;;12.77;7.47;;;;;;;9.20;49.30;95867.28;10351645;28;20197;-60
2023/03/17 16:45:57;;;;;;;12.23;8.13;;;;;;;9.13;50.40;95892.44;10370050;28;20232;-60
2023/03/17 16:50:58;;;;;;;11.73;7.03;;;;;;;9.05;50.30;95885.44;10419382;23;20584;-64
2023/03/17 16:55:58;;;;;;;12.10;5.90;;;;;;;8.74;50.73;95879.16;10380253;28;20211;-63
2023/03/17 17:01:01;;;;;;;11.43;7.47;;;;;;;8.68;51.54;95872.00;10372809;28;20216;-64
2023/03/17 17:06:03;;;;;;;9.77;6.47;;;;;;;8.73;51.15;95881.94;10382264;28;20217;-64
2023/03/17 17:11:03;;;;;;;10.87;6.67;;;;;;;8.62;52.21;95897.94;10370138;28;20300;-64
2023/03/17 17:16:04;;;;;;;13.00;6.60;;;;;;;8.53;51.70;95884.88;10353588;28;20189;-64
2023/03/17 17:21:06;;;;;;;11.47;6.37;;;;;;;8.52;51.59;95888.47;10330230;28;20626;-62
2023/03/17 17:26:06;;;;;;;11.47;6.57;;;;;;;8.43;52.44;95907.69;10345270;28;20232;-63
2023/03/17 17:31:07;;;;;;;12.17;6.00;;;;;;;8.56;51.96;95892.41;10349605;28;20210;-63
2023/03/17 17:36:11;;;;;;;9.93;6.53;;;;;;;8.61;52.42;95898.94;10349082;28;20198;-63
2023/03/17 17:41:12;;;;;;;13.63;6.47;;;;;;;8.59;52.11;95890.44;10346320;28;20214;-61
2023/03/17 17:46:19;;;;;;;10.93;6.90;;;;;;;8.53;52.47;95900.56;10334648;28;20218;-63
2023/03/17 17:51:19;;;;;;;9.83;6.17;;;;;;;8.54;52.77;95899.56;10328609;28;20234;-61
2023/03/17 17:56:20;;;;;;;10.03;6.23;;;;;;;8.40;53.41;95913.25;10328238;28;20204;-61
2023/03/17 18:01:21;;;;;;;11.50;5.87;;;;;;;8.31;53.79;95907.19;10328230;28;20221;-62
2023/03/17 18:06:21;;;;;;;9.77;5.63;;;;;;;8.36;53.14;95901.47;10327934;28;20708;-63
2023/03/17 18:11:22;;;;;;;8.60;5.10;;;;;;;8.32;53.57;95908.03;10327925;28;20214;-63
2023/03/17 18:16:22;;;;;;;15.03;6.97;;;;;;;8.28;53.84;95914.53;10328139;28;20205;-63
2023/03/17 18:21:22;;;;;;;10.63;6.37;;;;;;;8.27;53.60;95890.25;10327437;28;20214;-62
2023/03/17 18:26:23;;;;;;;8.33;5.00;;;;;;;8.26;54.10;95893.81;10327711;28;20287;-61
2023/03/17 18:31:28;;;;;;;9.97;5.40;;;;;;;8.18;54.37;95886.81;10327546;28;20214;-61
2023/03/17 18:36:28;;;;;;;8.60;5.50;;;;;;;8.09;54.38;95881.75;10325510;28;20221;-61
2023/03/17 18:41:31;;;;;;;12.20;5.60;;;;;;;8.12;54.25;95892.66;10326660;28;20217;-59
2023/03/17 18:46:31;;;;;;;9.73;6.07;;;;;;;8.02;54.69;95881.56;10325064;28;20300;-62
2023/03/17 18:51:32;;;;;;;9.50;5.40;;;;;;;8.01;54.58;95870.31;10326492;28;20246;-62
2023/03/17 18:56:33;;;;;;;10.60;6.03;;;;;;;7.84;54.74;95886.91;10326341;28;20186;-62
2023/03/17 19:01:33;;;;;;;5.73;3.47;;;;;;;7.95;54.46;95857.13;10325971;28;20284;-62
2023/03/17 19:06:38;;;;;;;8.33;4.17;;;;;;;7.98;54.48;95882.88;10325769;28;20229;-62
2023/03/17 19:11:38;;;;;;;7.00;3.87;;;;;;;7.80;54.84;95870.78;10325790;28;20190;-62
2023/03/17 19:16:39;;;;;;;7.63;4.57;;;;;;;7.79;55.00;95863.09;10326018;28;20201;-62
2023/03/17 19:21:40;;;;;;;11.63;4.50;;;;;;;7.66;55.66;95879.22;10326316;28;20665;-61
2023/03/17 19:26:41;;;;;;;9.30;4.10;;;;;;;7.81;54.86;95859.38;10327739;28;20217;-60
2023/03/17 19:31:42;;;;;;;9.17;5.40;;;;;;;7.93;54.38;95846.84;10334281;28;20190;-62
2023/03/17 19:36:45;;;;;;;6.17;3.43;;;;;;;7.64;55.01;95855.91;10333412;28;20182;-62
2023/03/17 19:41:47;;;;;;;10.57;5.67;;;;;;;7.52;55.14;95869.38;10333781;28;20190;-62
2023/03/17 19:46:47;;;;;;;9.40;5.13;;;;;;;7.70;54.36;95854.44;10332876;28;20222;-63
2023/03/17 19:51:48;;;;;;;11.40;4.83;;;;;;;7.66;54.32;95843.53;10333276;28;20570;-63
2023/03/17 19:56:49;;;;;;;14.83;5.67;;;;;;;7.51;55.19;95850.34;10332802;28;20193;-63
2023/03/17 20:01:49;;;;;;;9.07;5.37;;;;;;;7.50;54.96;95875.59;10332215;28;20190;-63
2023/03/17 20:06:54;;;;;;;12.80;5.60;;;;;;;7.50;54.54;95883.41;10332571;28;20221;-63
2023/03/17 20:11:55;;;;;;;12.50;6.50;;;;;;;7.43;55.26;95879.78;10332370;28;20202;-63
2023/03/17 20:16:55;;;;;;;9.30;4.70;;;;;;;7.34;55.07;95885.94;10363029;28;20721;-62
2023/03/17 20:21:57;;;;;;;12.13;5.57;;;;;;;7.29;55.36;95885.63;10413477;28;20675;-64
2023/03/17 20:26:58;;;;;;;8.63;5.07;;;;;;;7.22;55.54;95897.63;10374229;28;20265;-61
2023/03/17 20:31:59;;;;;;;9.50;4.83;;;;;;;7.13;55.63;95899.38;10349648;28;20263;-63
2023/03/17 20:37:01;;;;;;;10.50;4.47;;;;;;;7.06;55.55;95887.91;10348038;28;20268;-61
2023/03/17 20:42:03;;;;;;;10.73;4.90;;;;;;;7.02;55.13;95886.63;10347027;28;20208;-64
2023/03/17 20:47:03;;;;;;;7.90;4.80;;;;;;;7.22;54.37;95854.16;10357424;28;20252;-64
2023/03/17 20:52:05;;;;;;;7.70;4.87;;;;;;;7.16;54.16;95849.56;10371447;28;20763;-64
2023/03/17 20:57:06;;;;;;;13.77;6.10;;;;;;;7.25;53.81;95834.78;10371397;28;21029;-64
2023/03/17 21:02:13;;;;;;;11.13;4.90;;;;;;;7.24;53.65;95836.59;10370838;28;20194;-64
2023/03/17 21:07:15;;;;;;;9.73;5.23;;;;;;;7.13;53.81;95835.06;10371114;28;20233;-64
2023/03/17 21:12:17;;;;;;;8.40;5.23;;;;;;;7.06;53.70;95825.41;10370842;28;20534;-63
2023/03/17 21:17:18;;;;;;;8.13;5.23;;;;;;;7.08;52.86;95826.09;10370556;28;20297;-64
2023/03/17 21:22:19;;;;;;;8.73;4.00;;;;;;;6.97;53.78;95828.00;10370842;28;20547;-61
2023/03/17 21:27:20;;;;;;;8.17;4.50;;;;;;;6.97;53.79;95816.78;10369629;28;20225;-64
2023/03/17 21:32:21;;;;;;;11.50;5.30;;;;;;;6.89;53.98;95820.16;10370301;28;20242;-61
2023/03/17 21:37:21;;;;;;;10.50;4.33;;;;;;;6.85;54.04;95826.66;10369108;28;20348;-63
2023/03/17 21:42:23;;;;;;;8.30;5.27;;;;;;;6.87;52.98;95816.06;10369591;28;20223;-61
2023/03/17 21:47:23;;;;;;;8.17;5.20;;;;;;;6.73;53.53;95822.69;10369173;28;20327;-64
2023/03/17 21:52:24;;;;;;;8.70;3.90;;;;;;;6.74;52.22;95799.09;10368672;28;20669;-61
2023/03/17 21:57:26;;;;;;;10.27;4.33;;;;;;;6.70;52.58;95795.16;10369098;28;20694;-63
2023/03/17 22:02:27;;;;;;;8.47;4.70;;;;;;;6.63;52.65;95794.16;10368381;28;20197;-64
2023/03/17 22:07:28;;;;;;;8.90;4.50;;;;;;;6.52;52.69;95795.22;10368345;28;20235;-63
2023/03/17 22:12:28;;;;;;;9.47;4.57;;;;;;;6.53;52.13;95777.84;10368375;28;20185;-62
2023/03/17 22:17:29;;;;;;;7.37;4.00;;;;;;;6.42;52.36;95795.34;10368086;28;20217;-59
2023/03/17 22:22:29;;;;;;;8.97;4.97;;;;;;;6.37;52.14;95799.34;10368319;28;20288;-63
2023/03/17 22:27:30;;;;;;;9.57;3.70;;;;;;;6.30;52.10;95786.16;10367264;28;20225;-63
2023/03/17 22:32:31;;;;;;;9.07;4.93;;;;;;;6.14;53.22;95809.44;10368172;28;20189;-64
2023/03/17 22:37:31;;;;;;;9.43;4.20;;;;;;;6.24;52.66;95778.97;10367074;28;20280;-61
2023/03/17 22:42:31;;;;;;;9.30;4.93;;;;;;;6.06;52.87;95797.19;10367522;28;20213;-62
2023/03/17 22:52:59;;;;;;;7.93;4.53;;;;;;;6.14;52.39;95799.88;10284840;28;20692;-58
2023/03/17 22:57:59;;;;;;;10.87;4.47;;;;;;;6.10;52.19;95792.53;10285570;28;20210;-60
2023/03/17 23:02:59;;;;;;;7.20;4.07;;;;;;;6.17;52.45;95783.13;10283675;28;20198;-59
2023/03/17 23:08:00;;;;;;;7.20;4.17;;;;;;;6.04;52.45;95775.75;10285181;28;20317;-61
2023/03/17 23:13:00;;;;;;;12.33;4.23;;;;;;;5.99;52.92;95780.59;10285283;28;20245;-61
2023/03/17 23:18:01;;;;;;;6.87;4.07;;;;;;;5.99;53.30;95783.19;10285213;28;20218;-61
2023/03/17 23:23:01;;;;;;;11.20;4.27;;;;;;;6.02;52.63;95785.47;10285398;28;20241;-61
2023/03/17 23:28:02;;;;;;;11.27;4.43;;;;;;;5.91;53.36;95825.47;10285185;28;20238;-60
2023/03/17 23:33:03;;;;;;;9.57;5.47;;;;;;;5.76;53.72;95791.41;10285161;28;20671;-61
2023/03/17 23:38:03;;;;;;;15.40;4.87;;;;;;;5.83;52.95;95791.63;10285080;28;20215;-60
2023/03/17 23:43:04;;;;;;;8.23;4.93;;;;;;;5.80;52.73;95797.13;10284977;28;20190;-61
2023/03/17 23:48:04;;;;;;;8.93;4.73;;;;;;;5.65;53.37;95815.84;10284855;28;20281;-60